Erick Martin

Olheiro-Chefe - Tigres
10 Set 2028
Domingo
Processo

Personalidade

Adaptabilidade (6) Ambição (20) Controvérsia (3) Lealdade (18) Pressão (12) Profissionalismo (16) Espírito Esportivo (17) Temperamento (6)

Perfil

Estilo de Treinamento Democrático
Licença Continental Pro
Determinação 7
Gestão de Pessoas 13
Motivação 13
Disciplina 11
Satisfação no Trabalho
71%
Fadiga
0%
Função Olheiro-Chefe
Salário 24.7K p/s
Contrato 14.03.2029

Desempenho

Comportamento Bom
Eficácia do Treinamento
26%
Desenvolvimento do Jogador
30%
Prevenção de Lesões
55%
Implementação Tática
40%

Eventos Recentes

Recomendou um alvo de transferência agora
Recomendou um alvo de transferência agora
Recomendou um alvo de transferência agora
Recomendou um alvo de transferência agora
Recomendou um alvo de transferência agora
Avaliou um jogador agora
Avaliou um jogador agora
Avaliou um jogador agora

Monitorando agora

353
Jogador Clube Status Habilidade Confiança Observado Última observação Último voto
Riku Yamane Yokohama F. Marinos Ativo 134 / 133 40% 4 09.09.2028 -
Jonathan De Irastorza Independiente Ativo 133 / 129 40% 2 09.09.2028 -
Lucas Sanabria LA Galaxy Ativo 132 / 133 40% 1 09.09.2028 -
Ryuya Nishio Omiya Ardija Ativo 135 / 133 40% 2 08.09.2028 -
Christian Kashima Antlers Ativo 139 / 133 40% 1 08.09.2028 -
Ismaël Bennacer Boca Juniors Ativo 148 / 146 40% 1 08.09.2028 -
Conrad Wallem Djurgarden Ativo 136 / 125 40% 6 07.09.2028 -
Felipe Peña Biafore Lanús Ativo 133 / 132 40% 6 07.09.2028 -
José Luis Caicedo Deportivo Cali Ativo 131 / 129 40% 2 07.09.2028 -
Riku Handa Gamba Osaka Ativo 138 / 128 40% 5 06.09.2028 -
David Douděra New York Red Bulls Ativo 131 / 133 40% 3 06.09.2028 -
Alan Rodríguez Internacional Ativo 132 / 129 40% 2 06.09.2028 -
Sondre Auklend Bodo/Glimt Ativo 133 / 142 40% 1 05.09.2028 -
Franco Ibarra Rosario Central Ativo 133 / 129 40% 8 04.09.2028 -
Mateo Mendoza Yokohama F. Marinos Ativo 135 / 126 40% 2 04.09.2028 -
Álex Valle Boca Juniors Ativo 141 / 140 40% 2 03.09.2028 -
Tojiro Kubo Kashiwa Reysol Ativo 134 / 134 40% 4 02.09.2028 -
Kauã Moraes Flamengo Ativo 132 / 135 40% 1 02.09.2028 -
Guille Rosas Boca Juniors Ativo 148 / 149 40% 1 02.09.2028 -
Santiago González Tigre Ativo 129 / 133 40% 9 30.08.2028 -
Marco Pellegrino Boca Juniors Ativo 134 / 131 40% 2 29.08.2028 -
Alan Franco São Paulo Ativo 130 / 129 40% 1 29.08.2028 -
Nicolás Romero Minnesota United FC Ativo 137 / 132 40% 3 27.08.2028 -
Igor Serrote Al Ain Ativo 131 / 129 40% 1 27.08.2028 -
Kimito Nono Yokohama F. Marinos Ativo 132 / 124 40% 9 26.08.2028 -
Marius Marin Al Nasr Ativo 138 / 140 40% 2 26.08.2028 -
Adrian Şut Al Ain Ativo 133 / 130 40% 1 26.08.2028 -
Matías Palacios Al Ain Ativo 143 / 147 40% 1 25.08.2028 -
Willian Batista Cortulua Ativo 147 / 147 40% 1 25.08.2028 -
Rafael Rodrigues Al Ain Ativo 128 / 133 40% 1 25.08.2028 -
Siaka Sidibé Al Wasl Ativo 132 / 128 40% 1 22.08.2028 -
Lorenzo Pirola AEK Ativo 146 / 141 40% 1 22.08.2028 -
Lazaros Rota Volos NPS Ativo 138 / 129 40% 1 22.08.2028 -
Santiago Salcedo Cruzeiro Ativo 158 / 156 40% 18 21.08.2028 -
Antoine Hainaut Venezia Ativo 135 / 141 40% 1 20.08.2028 -
Nathan Patterson Torino Ativo 146 / 146 40% 1 20.08.2028 -
Nuno Tavares Lazio Ativo 158 / 156 40% 1 20.08.2028 -
Alessandro Buongiorno Cagliari Ativo 169 / 159 40% 1 19.08.2028 -
Eliás Montiel Borussia Dortmund Ativo 144 / 147 40% 1 19.08.2028 -
Honest Ahanor Atalanta Ativo 141 / 142 40% 1 19.08.2028 -
Angeliño AS Roma Ativo 151 / 156 40% 8 18.08.2028 -
Antonino Gallo Bari Ativo 149 / 139 40% 1 18.08.2028 -
Morten Frendrup Palermo Ativo 152 / 144 40% 1 18.08.2028 -
Adrián Bernabé Parma Ativo 145 / 146 40% 2 17.08.2028 -
Enrico Delprato Parma Ativo 153 / 149 40% 2 17.08.2028 -
Pablo Maffeo Olympiacos Ativo 149 / 143 40% 1 17.08.2028 -
José Ángel Carmona Sevilla Ativo 161 / 151 40% 12 16.08.2028 -
Antonio Blanco Alavés Ativo 151 / 153 40% 12 16.08.2028 -
Adrià Altimira Deportivo La Coruña Ativo 144 / 143 40% 3 14.08.2028 -
Moussa Diakité Cádiz Ativo 138 / 135 40% 4 14.08.2028 -
Jorge Cabello Levante Ativo 136 / 143 40% 6 14.08.2028 -
Carlos Romero Villarreal Ativo 157 / 156 40% 15 13.08.2028 -
Natan Betis Ativo 160 / 160 40% 8 13.08.2028 -
José Copete Huesca Ativo 141 / 147 40% 5 12.08.2028 -
Carlos Puga Málaga Ativo 129 / 133 40% 1 12.08.2028 -
Fran Beltrán Girona Ativo 153 / 145 40% 8 10.08.2028 -
Álex Lizancos Burgos Ativo 131 / 140 40% 4 10.08.2028 -
Fran García Betis Ativo 154 / 156 40% 8 09.08.2028 -
Hugo Novoa Alavés Ativo 130 / 131 40% 7 09.08.2028 -
Yussif Saidu Zaragoza Ativo 133 / 135 40% 3 09.08.2028 -
Callum Brittain Middlesbrough Ativo 139 / 134 40% 5 08.08.2028 -
Oriol Rey Levante Ativo 137 / 139 40% 1 08.08.2028 -
Arnau Martínez Valencia Ativo 155 / 157 40% 12 07.08.2028 -
Aleix Garrido Eibar Ativo 138 / 139 40% 2 07.08.2028 -
Javi Rodríguez Celta Ativo 152 / 157 40% 9 06.08.2028 -
Jesús Areso Athletic Bilbao Ativo 154 / 153 40% 11 06.08.2028 -
Manuel Ugarte Leicester City Ativo 154 / 158 40% 1 06.08.2028 -
Ignasi Vilarrasa Burgos Ativo 130 / 130 40% 4 05.08.2028 -
Federico Bonini Almería Ativo 141 / 136 40% 2 05.08.2028 -
Benedikt Gimber Granada Ativo 137 / 132 40% 5 04.08.2028 -
Juan Gutiérrez Córdoba Ativo 131 / 129 40% 2 04.08.2028 -
Moisés Caicedo Chelsea Ativo 173 / 169 40% 2 03.08.2028 -
Bafodé Diakité Plymouth Argyle Ativo 153 / 151 40% 3 02.08.2028 -
Ramón Terrats Getafe Ativo 154 / 153 40% 9 01.08.2028 -
Omar El Hilali Espanyol Ativo 158 / 157 40% 11 31.07.2028 -
Jofre Carreras Espanyol Ativo 144 / 149 40% 1 31.07.2028 -
Jon Morcillo Almería Ativo 144 / 142 40% 1 31.07.2028 -
Flavien-Enzo Boyomo Osasuna Ativo 163 / 154 40% 7 28.07.2028 -
Kike Salas Sevilla Ativo 151 / 147 40% 13 27.07.2028 -
Dean Huijsen Las Palmas Ativo 156 / 154 40% 12 27.07.2028 -
Lucien Agoumé Sevilla Ativo 146 / 154 40% 6 25.07.2028 -
Enric Franquesa Leganés Ativo 134 / 140 40% 8 25.07.2028 -
Max Bird Birmingham Ativo 143 / 140 40% 6 23.07.2028 -
Juan Berrocal Málaga Ativo 137 / 143 40% 2 23.07.2028 -
Facundo Garcés Huesca Ativo 135 / 141 40% 3 23.07.2028 -
Iván Martín Racing Santander Ativo 150 / 148 40% 15 22.07.2028 -
Daijiro Chirino Almería Ativo 144 / 140 40% 5 22.07.2028 -
Hugo Guillamón Gijón Ativo 136 / 144 40% 1 22.07.2028 -
Alejandro Francés Girona Ativo 140 / 147 40% 6 21.07.2028 -
Quilindschy Hartman Burnley Ativo 156 / 150 40% 5 19.07.2028 -
Aitor Paredes Athletic Bilbao Ativo 159 / 158 40% 2 17.07.2028 -
John Chetauya Elche Ativo 132 / 130 40% 1 17.07.2028 -
Manu Morlanes Mallorca Ativo 143 / 150 40% 11 10.07.2028 -
Yusi Alavés Ativo 140 / 136 40% 2 09.07.2028 -
Javi Guerra Valencia Ativo 151 / 154 40% 7 08.07.2028 -
Pape Guèye Villarreal Ativo 155 / 150 40% 2 08.07.2028 -
Aarón Racing Santander Ativo 137 / 135 40% 5 07.07.2028 -
Boubacar Kamara Aston Villa Ativo 168 / 172 40% 5 05.07.2028 -
Alex Scott Bournemouth Ativo 160 / 157 40% 4 29.06.2028 -
Edu Expósito Espanyol Ativo 144 / 149 40% 11 28.06.2028 -
Marvin Park Las Palmas Ativo 135 / 131 40% 5 27.06.2028 -
Cade Cowell Guadalajara Relatório pronto 119 / 125 86% 1 26.06.2028 -
Santi Comesaña Villarreal Ativo 153 / 150 40% 7 22.06.2028 -
Juanlu Bournemouth Ativo 158 / 158 40% 1 21.06.2028 -
Archie Gray Southampton Ativo 155 / 161 40% 2 20.06.2028 -
Adrià Pedrosa Sevilla Ativo 141 / 143 40% 1 20.06.2028 -
Matteo Ruggeri Middlesbrough Ativo 160 / 160 40% 4 18.06.2028 -
Pablo Martínez Málaga Ativo 137 / 130 40% 2 13.06.2028 -
Nathan Trott Cardiff City Perdido 133 / 136 40% 7 07.06.2028 -
Lukas Jensen Millwall Perdido 128 / 126 40% 2 07.06.2028 -
Lukáš Horníček Burnley Ativo 154 / 154 40% 1 07.06.2028 -
Nicolás Castro Toluca Perdido 132 / 139 86% 1 01.06.2028 -
Jayden Danns Bradford City Ativo 141 / 144 40% 1 01.06.2028 -
Troy Parrott Betis Ativo 143 / 136 40% 1 01.06.2028 -
Miguel Rodríguez Alavés Ativo 139 / 141 40% 1 31.05.2028 -
Isaac Romero Sevilla Ativo 146 / 145 40% 1 31.05.2028 -
Zico Buurmeester Leganés Ativo 126 / 128 40% 1 29.05.2028 -
Donny van de Beek Girona Ativo 143 / 138 40% 2 21.05.2028 -
Ilaix Moriba Celta Ativo 153 / 159 40% 2 21.05.2028 -
Andrey Santos Bolton Wanderers Ativo 144 / 147 40% 1 20.05.2028 -
Jon Ander Olasagasti Levante Ativo 131 / 131 40% 1 18.05.2028 -
Aitor Ruibal Betis Ativo 146 / 138 40% 1 18.05.2028 -
Dani Vivian Athletic Bilbao Ativo 159 / 159 40% 3 12.05.2028 -
Fernando Calero Málaga Ativo 135 / 135 40% 1 08.05.2028 -
Jayden Bogle Leeds United Ativo 143 / 140 40% 1 05.05.2028 -
Jesús Vázquez Valencia Ativo 144 / 137 40% 1 03.05.2028 -
Lorenzo Amatucci Deportivo La Coruña Ativo 143 / 139 40% 1 28.04.2028 -
Kenny Tete Fulham Ativo 145 / 139 40% 7 21.04.2028 -
Igor Zubeldia Real Sociedad Ativo 147 / 145 40% 2 19.04.2028 -
Melvin Bard OGC Nice Ativo 154 / 153 40% 1 12.04.2028 -
Clemens Riedel Espanyol Ativo 134 / 138 40% 3 09.04.2028 -
Miguel Rubio Valladolid Ativo 140 / 140 40% 1 08.04.2028 -
Timothy Castagne Stoke City Ativo 142 / 135 40% 1 08.04.2028 -
Sergi Cardona KAA Gent Ativo 152 / 144 40% 13 25.03.2028 -
Santiago Mouriño Villarreal Ativo 157 / 157 40% 2 25.03.2028 -
Sebastián Cáceres Celta Ativo 147 / 147 40% 1 22.03.2028 -
Adam Wharton Crystal Palace Ativo 155 / 163 40% 1 20.03.2028 -
Erik Lira Cruz Azul Ativo 140 / 144 40% 8 16.03.2028 -
Kevin Lomónaco Elche Ativo 143 / 139 40% 2 08.03.2028 -
Marc Pubill Atlético Madrid Ativo 150 / 148 40% 1 19.02.2028 -
Sergio Gómez Real Sociedad Ativo 151 / 152 40% 5 18.02.2028 -
Renan Lodi Atlético Mineiro Ativo 141 / 136 40% 2 02.02.2028 -
Ignacio Vázquez Platense Ativo 129 / 126 40% 13 24.01.2028 -
Jorge Díaz Toluca Ativo 108 / 111 86% 1 24.01.2028 Aprovar
Marco Di Cesare Racing Club Ativo 129 / 127 40% 9 23.01.2028 -
Luciano Juba Bahia Ativo 134 / 137 40% 1 19.01.2028 -
Facundo Colidio Vasco da Gama Ativo 131 / 129 40% 1 17.01.2028 -
Matías Galarza Talleres Ativo 130 / 126 40% 7 15.01.2028 -
Aarón Quiros Vélez Ativo 129 / 128 40% 11 15.01.2028 -
Bruno Leyes Godoy Cruz Ativo 128 / 129 40% 2 15.01.2028 -
Facundo Mura Inter Miami CF Ativo 131 / 127 40% 7 14.01.2028 -
Danilo Botafogo Ativo 144 / 144 40% 2 14.01.2028 -
William Cruzeiro Ativo 134 / 137 40% 2 14.01.2028 -
Gastón Benedetti Estudiantes Ativo 127 / 125 40% 1 13.01.2028 -
Camilo Martinez Cortulua Ativo 126 / 122 40% 3 11.01.2028 -
Sasha Marcich Lanús Ativo 124 / 126 40% 1 10.01.2028 -
Juan Carlos Portillo River Plate Ativo 132 / 132 40% 7 07.01.2028 -
Alexandro Bernabei Internacional Ativo 138 / 132 40% 1 07.01.2028 -
Matheus Bidu Corinthians Ativo 133 / 126 40% 2 05.01.2028 -
Mao Hosoya Santos Ativo 134 / 135 67% 1 01.01.2028 Aprovar
Dion Beljo AJ Auxerre Ativo 131 / 132 66% 1 01.01.2028 Aprovar
Vitinho Botafogo Ativo 136 / 135 40% 1 01.01.2028 -
Hugo Duro Valencia Ativo 146 / 149 40% 1 31.12.2027 -
Abel Ruiz Girona Ativo 149 / 149 40% 1 31.12.2027 -
Yassir Zabiri Stade Rennais Ativo 137 / 139 40% 1 31.12.2027 -
Paulo Henrique Vasco da Gama Ativo 135 / 128 40% 1 28.12.2027 -
Emanuel Mammana Vélez Ativo 130 / 132 40% 13 25.12.2027 -
Nazareno Colombo Racing Club Ativo 131 / 131 40% 3 25.12.2027 -
Rico Henry River Plate Ativo 142 / 139 40% 6 24.12.2027 -
Lucas Paquetá Flamengo Ativo 138 / 139 40% 1 19.12.2027 -
Gastón Hernández San Lorenzo Ativo 125 / 124 40% 6 12.12.2027 -
Enzo Díaz Sport Recife Ativo 135 / 134 40% 1 10.12.2027 -
Rikuto Hirose Kashima Antlers Ativo 131 / 130 40% 4 07.12.2027 -
Caio Alexandre Bahia Ativo 140 / 136 40% 1 05.12.2027 -
Joaquín García Vélez Ativo 126 / 127 40% 5 02.12.2027 -
Juan Sierra La Equidad Ativo 126 / 129 40% 6 21.11.2027 -
Hirokazu Ishihara FC Tokyo Ativo 131 / 130 40% 2 17.11.2027 -
Aníbal Moreno River Plate Ativo 131 / 133 40% 6 16.11.2027 -
Damián Fernández Defensa y Justicia Ativo 130 / 124 40% 2 15.11.2027 -
Lautaro Di Lollo Boca Juniors Ativo 132 / 131 40% 5 12.11.2027 -
Kaito Yasui Urawa Reds Ativo 126 / 133 40% 1 09.11.2027 -
Juan Manuel Sanabria Real Salt Lake Ativo 132 / 126 40% 2 08.11.2027 -
Gonzalo Montiel River Plate Ativo 130 / 133 40% 4 06.11.2027 -
Federico Navarro Rosario Central Ativo 125 / 126 40% 4 30.10.2027 -
Jherson Mosquera Newell's Old Boys Ativo 126 / 127 40% 5 26.10.2027 -
Niklas Dorsch Toronto FC Ativo 131 / 134 40% 6 19.10.2027 -
Taiyo Koga Kashiwa Reysol Ativo 143 / 139 40% 1 17.10.2027 -
Shuto Nakano Sanfrecce Hiroshima Ativo 141 / 134 40% 1 16.10.2027 -
César Inga Universitario Ativo 132 / 132 40% 3 15.09.2027 -
Lima Fluminense Ativo 125 / 128 40% 1 05.09.2027 -
Ayrton Costa Boca Juniors Ativo 136 / 132 40% 1 28.08.2027 -
Renato Tapia Al Wasl Ativo 149 / 136 40% 1 27.08.2027 -
Nicolás Giménez Al Wasl Ativo 130 / 135 40% 1 24.08.2027 -
Gabi Kanichowsky Maccabi Tel Aviv Ativo 140 / 127 40% 1 21.08.2027 -
Giorgos Kyriakopoulos Panathinaikos Ativo 135 / 133 40% 1 21.08.2027 -
Manu Koné AS Roma Ativo 171 / 168 40% 3 20.08.2027 -
Lucas Da Cunha Como Ativo 145 / 144 40% 3 20.08.2027 -
Carlos Augusto Inter Ativo 156 / 152 40% 1 19.08.2027 -
Niccolò Pierozzi Palermo Ativo 126 / 134 40% 1 19.08.2027 -
André-Franck Zambo Anguissa Napoli Ativo 162 / 164 40% 6 18.08.2027 -
Jordan Zemura Udinese Ativo 138 / 135 40% 1 18.08.2027 -
Khéphren Thuram Juventus Ativo 162 / 163 40% 2 17.08.2027 -
Odilon Kossounou Atalanta Ativo 153 / 149 40% 1 17.08.2027 -
Billy Gilmour Napoli Ativo 154 / 147 40% 1 17.08.2027 -
Mitchel Bakker Modena Ativo 131 / 133 40% 2 16.08.2027 -
Trevoh Chalobah Como Ativo 155 / 162 40% 1 14.08.2027 -
Evan N'Dicka AS Roma Ativo 157 / 165 40% 1 14.08.2027 -
Alessio Romagnoli Lazio Ativo 157 / 147 40% 1 14.08.2027 -
Nicolò Rovella Lazio Ativo 157 / 154 40% 1 12.08.2027 -
Raoul Bellanova Atalanta Ativo 157 / 150 40% 1 11.08.2027 -
Hidemasa Morita Hull City Ativo 147 / 145 40% 3 08.08.2027 -
Darlin Yongwa Norwich City Ativo 129 / 133 40% 1 08.08.2027 -
Jacob Greaves Ipswich Town Ativo 145 / 135 40% 4 06.08.2027 -
Shea Charles Southampton Ativo 147 / 141 40% 5 06.08.2027 -
Dara O'Shea Ipswich Town Ativo 145 / 138 40% 8 03.08.2027 -
Azor Matusiwa Ipswich Town Ativo 139 / 137 40% 3 03.08.2027 -
Max Johnston Derby County Ativo 133 / 133 40% 4 03.08.2027 -
Jacques Ekomié Wrexham Ativo 138 / 133 40% 5 02.08.2027 -
Matthew Targett Hull City Ativo 131 / 132 40% 2 02.08.2027 -
Aarón Mejía Tijuana Ativo 122 / 120 83% 1 02.08.2027 Aprovar
Pedro Porro Tottenham Ativo 150 / 147 40% 2 01.08.2027 -
Oliver Skipp Leicester City Ativo 137 / 137 40% 6 30.07.2027 -
Amadou Onana Aston Villa Ativo 159 / 159 40% 2 30.07.2027 -
Harry Clarke Preston Ativo 129 / 128 40% 5 26.07.2027 -
Miguel Gutierrez Veracruz Ativo 114 / 115 83% 1 26.07.2027 Aprovar
Óscar Mingueza Crystal Palace Ativo 154 / 154 40% 1 26.07.2027 -
Tariq Lamptey Queens Park Rangers Ativo 136 / 135 40% 7 11.07.2027 -
Kyle Walker-Peters West Ham United Ativo 137 / 143 40% 1 11.07.2027 -
André Wolverhampton Ativo 147 / 145 40% 2 09.07.2027 -
Christopher Opéri Basaksehir Ativo 130 / 126 40% 2 09.07.2027 -
Welington Southampton Ativo 134 / 126 40% 6 08.07.2027 -
Habib Diarra Sunderland Ativo 144 / 143 40% 7 06.07.2027 -
Ronnie Edwards Queens Park Rangers Ativo 133 / 130 40% 2 05.07.2027 -
Japhet Tanganga Sheffield United Ativo 138 / 135 40% 1 05.07.2027 -
Toby Collyer West Bromwich Albion Ativo 140 / 139 40% 3 03.07.2027 -
Ben Nelson Leicester City Ativo 139 / 137 40% 1 02.07.2027 -
Nicolas Madsen Queens Park Rangers Ativo 135 / 126 40% 2 29.06.2027 -
Rolando Mandragora Torino Ativo 145 / 149 40% 1 24.06.2027 -
Sidny Lopes Cabral Trabzonspor Ativo 143 / 132 40% 2 23.06.2027 -
Federico Pereira Toulouse FC Ativo 137 / 140 40% 1 23.06.2027 -
Luís Esteves Atlas Ativo 137 / 128 40% 2 21.06.2027 -
Jesús Orozco Chiquete Cruz Azul Ativo 136 / 129 40% 6 21.06.2027 -
Bright Arrey-Mbi Braga Ativo 139 / 142 40% 2 18.06.2027 -
Carlos Moreno Pachuca Perdido 134 / 136 40% 5 31.05.2027 -
Mike Maignan AC Milan Ativo 163 / 170 40% 1 31.05.2027 -
Brooke Norton-Cuffy Hull City Ativo 143 / 137 40% 4 30.05.2027 -
Yehvann Diouf OGC Nice Ativo 147 / 148 40% 7 29.05.2027 -
Alexander Nübel Besiktas Perdido 154 / 148 40% 7 24.05.2027 -
Mads Hermansen West Ham United Ativo 140 / 145 40% 7 22.05.2027 -
Samuel Soares Benfica Ativo 138 / 131 40% 5 22.05.2027 -
Josh Keeley Luton Town Ativo 132 / 129 40% 7 21.05.2027 -
Agustín Palavecino Cruz Azul Ativo 135 / 137 40% 8 17.05.2027 -
Anthony Patterson Wrexham Perdido 137 / 130 40% 7 17.05.2027 -
Sorriso Famalicao Ativo 133 / 124 40% 3 12.05.2027 -
Mario Pašalić Atalanta Ativo 148 / 152 40% 1 12.05.2027 -
Yoane Wissa Newcastle United Ativo 143 / 136 40% 2 11.05.2027 -
James Trafford Leeds United Ativo 148 / 145 40% 8 09.05.2027 -
Dean Henderson Crystal Palace Ativo 146 / 148 40% 9 06.05.2027 -
Pepê Porto Ativo 144 / 145 40% 1 06.05.2027 -
Enzo Loiodice Olympique Lyonnais Ativo 137 / 133 40% 1 06.05.2027 -
Radek Vítek Middlesbrough Ativo 138 / 139 40% 5 02.05.2027 -
Alex Meret Napoli Ativo 151 / 155 40% 2 01.05.2027 -
Vladan Kovačević Norwich City Ativo 126 / 116 40% 1 30.04.2027 -
Balázs Tóth Blackburn Rovers Ativo 130 / 131 40% 4 29.04.2027 -
Robin Roefs Sunderland Ativo 140 / 142 40% 2 24.04.2027 -
Fran Vieites Walsall Ativo 123 / 119 40% 2 22.04.2027 -
Michael Baidoo Plymouth Argyle Ativo 130 / 125 40% 1 21.04.2027 -
Juninho Pumas UNAM Ativo 132 / 129 40% 1 19.04.2027 -
Mohamed-Ali Cho Hull City Ativo 132 / 136 40% 1 19.04.2027 -
Bilal Bayazıt Kayserispor Ativo 122 / 127 40% 2 18.04.2027 -
Dani Ceballos RC Lens Ativo 146 / 146 40% 1 17.04.2027 -
John McGinn Aston Villa Ativo 145 / 150 40% 3 14.04.2027 -
Marcelo Allende Mamelodi Sundowns Ativo 132 / 130 40% 2 14.04.2027 -
Florentino Luís Ipswich Town Ativo 147 / 133 40% 8 12.04.2027 -
Juan Soriano Académico de Viseu Ativo 122 / 124 40% 4 05.04.2027 -
Raúl Rangel Braga Ativo 135 / 141 40% 1 05.04.2027 -
Antonio Gomis Vizela Ativo 124 / 125 40% 1 04.04.2027 -
Carlos Álvarez Club America Ativo 137 / 138 40% 7 31.03.2027 -
Roberto Fernández Braga Ativo 139 / 140 40% 1 31.03.2027 -
Víctor Guzmán Monterrey Ativo 129 / 133 40% 6 28.03.2027 -
Andrés Gudiño Cruz Azul Ativo 125 / 128 40% 2 28.03.2027 -
Jack Rudoni Coventry City Ativo 137 / 139 40% 4 26.03.2027 -
Carlos Rotondi Cruz Azul Ativo 138 / 125 40% 1 26.03.2027 -
Sorba Thomas Stoke City Ativo 134 / 132 40% 1 22.03.2027 -
Lazar Carević Famalicao Ativo 136 / 139 40% 1 21.03.2027 -
Sebastián Córdova Pumas UNAM Ativo 130 / 126 40% 4 17.03.2027 -
Elia Caprile Cagliari Ativo 145 / 140 40% 1 17.03.2027 -
Joe Gelhardt Hull City Ativo 130 / 134 40% 1 15.03.2027 -
Dominik Greif Olympique Lyonnais Ativo 149 / 138 40% 1 13.03.2027 -
Carlos Acevedo Santos Laguna Ativo 132 / 135 40% 1 13.03.2027 -
Marko Ilić KV Kortrijk Ativo 125 / 126 40% 1 06.03.2027 -
Fidel Ambríz Monterrey Ativo 127 / 125 40% 3 23.02.2027 -
Alfie Doughty Millwall Ativo 134 / 131 40% 2 23.02.2027 -
Aidan Morris Middlesbrough Ativo 134 / 125 40% 4 22.02.2027 -
Ilay Camara Anderlecht Ativo 132 / 132 40% 3 22.02.2027 -
Dennis Cirkin Queens Park Rangers Ativo 125 / 122 40% 3 18.02.2027 -
Ramón Juárez Club America Ativo 134 / 137 40% 6 12.02.2027 -
Milan van Ewijk Coventry City Ativo 129 / 126 40% 2 12.02.2027 -
Gustavo Mantuan Zenit Ativo 140 / 141 40% 3 10.02.2027 -
Dion Lopy Al-Ittihad Ativo 127 / 127 40% 1 08.02.2027 -
Gabriel Gudmundsson Leeds United Ativo 137 / 149 40% 1 06.02.2027 -
Cheick Oumar Souaré Viktoria Plzen Ativo 122 / 135 40% 1 05.02.2027 -
Richard Ledezma Guadalajara Ativo 131 / 128 40% 4 25.01.2027 -
Jake O'Brien Everton Ativo 142 / 143 40% 1 19.01.2027 -
Anel Ahmedhodžić Burnley Ativo 136 / 132 40% 4 17.01.2027 -
Álex Centelles Levski Ativo 130 / 132 40% 2 15.01.2027 -
Luke McNally Bristol City Ativo 130 / 135 40% 2 10.01.2027 -
Marvin Keller Chelsea Ativo 136 / 137 67% 1 01.01.2027 Aprovar
Reinildo Sunderland Ativo 140 / 138 40% 1 28.12.2026 -
João Cancelo Spartak Moscow Ativo 152 / 141 40% 8 27.12.2026 -
Valentín Gómez Betis Ativo 143 / 141 40% 3 27.12.2026 -
Rubén Duarte Pumas UNAM Ativo 135 / 136 40% 4 25.12.2026 -
Carlos Forbs Club Brugge Ativo 129 / 132 40% 4 25.12.2026 -
Marcelino Moreno Lanús Ativo 130 / 127 40% 2 25.12.2026 -
Andrew Robertson Tottenham Ativo 152 / 154 40% 2 25.12.2026 -
Nathan Silva Pumas UNAM Ativo 130 / 130 40% 1 25.12.2026 -
Ferland Mendy Real Madrid Ativo 151 / 145 40% 7 23.12.2026 -
Finn Azaz Southampton Ativo 130 / 135 40% 1 20.12.2026 -
Tyrhys Dolan Espanyol Ativo 133 / 130 40% 4 19.12.2026 -
Óscar Valentín FC Copenhagen Ativo 137 / 140 40% 8 15.12.2026 -
Luis Romo Guadalajara Ativo 137 / 134 40% 3 13.12.2026 -
Christian Nørgaard Everton Ativo 153 / 139 40% 1 13.12.2026 -
Rodrigo Dourado Club America Ativo 134 / 126 40% 1 12.12.2026 -
Leandro Paredes Boca Juniors Ativo 149 / 146 40% 7 09.12.2026 -
Justo Giani Umraniyespor Ativo 117 / 119 40% 1 03.12.2026 -
Reda Khadra Qarabag Ativo 130 / 123 40% 1 24.11.2026 -
Alexander Díaz Deportivo Riestra Ativo 119 / 118 40% 1 21.11.2026 -
Alex Luna Instituto Ativo 129 / 131 40% 4 19.11.2026 -
Carlos Rodríguez Cruz Azul Ativo 137 / 138 40% 4 18.11.2026 -
Matías Contrera Hrvatski Dragovoljac Ativo 103 / 104 40% 1 17.11.2026 -
Joaquín Correa Estudiantes Ativo 134 / 129 40% 2 13.11.2026 -
Ander Guevara Racing Genk Ativo 133 / 129 40% 6 11.11.2026 -
Jesús Gallardo Toluca Ativo 140 / 130 40% 2 09.11.2026 -
Jens Petter Hauge Bodo/Glimt Ativo 143 / 143 40% 1 03.11.2026 -
Kevin Álvarez Club America Ativo 136 / 132 40% 2 31.10.2026 -
Yoshan Valois Lanús Ativo 117 / 124 40% 1 29.10.2026 -
Ramiro Ruiz Rodríguez Atlético Tucumán Ativo 120 / 125 40% 1 29.10.2026 -
Alexis Cuello San Lorenzo Ativo 127 / 122 40% 1 28.10.2026 -
Rodrigo De Paul Inter Miami CF Ativo 152 / 153 40% 4 16.10.2026 -
Germán Berterame Inter Miami CF Ativo 135 / 138 40% 1 09.10.2026 -
Kévin Denkey FC Cincinnati Ativo 125 / 129 40% 1 09.10.2026 -
Tyrese Campbell Sheffield United Ativo 132 / 124 40% 1 09.10.2026 -
Telasco Segovia Inter Miami CF Ativo 134 / 135 40% 3 06.10.2026 -
Alexey Miranchuk Atlanta United FC Ativo 139 / 145 40% 1 06.10.2026 -
Alejandro Zendejas Club America Ativo 142 / 134 40% 3 04.10.2026 -
Martín Ojeda Orlando City Ativo 136 / 134 40% 2 30.09.2026 -
Allan Saint-Maximin Charlotte Football Club Ativo 138 / 143 40% 1 29.09.2026 -
Rodrigo Echeverría Leon Ativo 129 / 129 40% 1 14.09.2026 -
Jonathan Bamba Chicago Fire Ativo 137 / 128 40% 1 09.09.2026 -
Unai Bilbao Tijuana Ativo 130 / 127 40% 1 08.09.2026 -
Anton Salétros Chicago Fire Ativo 124 / 130 40% 1 08.09.2026 -
Dayne St. Clair Inter Miami CF Ativo 123 / 122 40% 1 30.08.2026 -
Ollie Watkins Al-Hilal Ativo 143 / 158 40% 1 04.08.2026 -